createdAt,value
2018-03-07T00:00:27.760Z,0
2018-03-07T00:01:27.528Z,0
2018-03-07T00:02:27.453Z,0
2018-03-07T00:03:27.702Z,0
2018-03-07T00:04:27.181Z,0
2018-03-07T00:05:27.742Z,0
2018-03-07T00:06:27.376Z,0
2018-03-07T00:07:27.097Z,0
2018-03-07T00:08:27.342Z,0
2018-03-07T00:09:27.057Z,0
2018-03-07T00:10:27.041Z,0
2018-03-07T00:11:27.815Z,0
2018-03-07T00:12:27.277Z,0
2018-03-07T00:13:27.248Z,0
2018-03-07T00:14:27.796Z,0
2018-03-07T00:15:27.223Z,0
2018-03-07T00:16:27.468Z,0
2018-03-07T00:17:27.448Z,0
2018-03-07T00:18:27.163Z,0
2018-03-07T00:19:27.406Z,0
2018-03-07T00:20:27.120Z,0
2018-03-07T00:21:27.102Z,0
2018-03-07T00:22:27.083Z,0
2018-03-07T00:23:27.331Z,0
2018-03-07T00:24:27.047Z,0
2018-03-07T00:25:27.025Z,0
2018-03-07T00:26:27.547Z,0
2018-03-07T00:27:27.254Z,0
2018-03-07T00:28:26.713Z,0
2018-03-07T00:29:27.226Z,0
2018-03-07T00:30:26.406Z,0
2018-03-07T00:31:27.186Z,0
2018-03-07T00:32:27.167Z,0
2018-03-07T00:33:27.163Z,0
2018-03-07T00:34:26.860Z,0
2018-03-07T00:35:26.590Z,0
2018-03-07T00:36:27.101Z,0
2018-03-07T00:37:26.817Z,0
2018-03-07T00:38:26.798Z,0
2018-03-07T00:39:26.505Z,0
2018-03-07T00:40:26.483Z,0
2018-03-07T00:41:26.791Z,0
2018-03-07T00:42:27.249Z,0
2018-03-07T00:43:26.962Z,0
2018-03-07T00:44:27.205Z,0
2018-03-07T00:45:26.409Z,0
2018-03-07T00:46:27.181Z,0
2018-03-07T00:47:26.632Z,0
2018-03-07T00:48:26.870Z,0
2018-03-07T00:49:26.594Z,0
2018-03-07T00:50:26.567Z,0
2018-03-07T00:51:26.556Z,0
2018-03-07T00:52:26.269Z,0
2018-03-07T00:53:26.521Z,0
2018-03-07T00:54:26.234Z,0
2018-03-07T00:55:26.744Z,0
2018-03-07T00:56:26.464Z,0
2018-03-07T00:57:26.441Z,0
2018-03-07T00:58:26.685Z,0
2018-03-07T00:59:26.144Z,0
2018-03-07T01:00:25.857Z,0
2018-03-07T01:01:26.627Z,0
2018-03-07T01:02:26.088Z,0
2018-03-07T01:03:26.055Z,0
2018-03-07T01:04:26.308Z,0
2018-03-07T01:05:26.300Z,0
2018-03-07T01:06:26.013Z,0
2018-03-07T01:07:26.522Z,0
2018-03-07T01:08:26.243Z,0
2018-03-07T01:09:26.536Z,0
2018-03-07T01:10:26.476Z,0
2018-03-07T01:11:25.913Z,0
2018-03-07T01:12:25.632Z,0
2018-03-07T01:13:25.881Z,0
2018-03-07T01:14:26.392Z,0
2018-03-07T01:15:25.849Z,0
2018-03-07T01:16:26.093Z,0
2018-03-07T01:17:26.071Z,0
2018-03-07T01:18:26.056Z,0
2018-03-07T01:19:26.300Z,0
2018-03-07T01:20:25.754Z,0
2018-03-07T01:21:26.002Z,0
2018-03-07T01:22:25.765Z,0
2018-03-07T01:23:25.973Z,0
2018-03-07T01:24:26.205Z,0
2018-03-07T01:25:25.928Z,0
2018-03-07T01:26:26.164Z,0
2018-03-07T01:27:25.889Z,0
2018-03-07T01:28:25.348Z,0
2018-03-07T01:29:25.597Z,0
2018-03-07T01:30:26.150Z,0
2018-03-07T01:31:25.809Z,0
2018-03-07T01:32:26.059Z,0
2018-03-07T01:33:26.044Z,0
2018-03-07T01:34:26.430Z,0
2018-03-07T01:35:25.207Z,0
2018-03-07T01:36:25.726Z,0
2018-03-07T01:37:25.971Z,0
2018-03-07T01:38:25.688Z,0
2018-03-07T01:39:25.926Z,0
2018-03-07T01:40:25.650Z,0
2018-03-07T01:41:25.895Z,0
2018-03-07T01:42:25.612Z,0
2018-03-07T01:43:25.330Z,0
2018-03-07T01:44:25.841Z,0
2018-03-07T01:45:25.552Z,0
2018-03-07T01:46:26.066Z,0
2018-03-07T01:47:25.248Z,0
2018-03-07T01:48:25.308Z,0
2018-03-07T01:49:25.743Z,0
2018-03-07T01:50:25.196Z,0
2018-03-07T01:51:25.176Z,0
2018-03-07T01:52:25.425Z,0
2018-03-07T01:53:25.406Z,0
2018-03-07T01:54:25.135Z,0
2018-03-07T01:55:25.108Z,0
2018-03-07T01:56:25.347Z,0
2018-03-07T01:57:25.066Z,0
2018-03-07T01:58:25.576Z,0
2018-03-07T01:59:25.334Z,0
2018-03-07T02:00:25.620Z,0
2018-03-07T02:01:24.998Z,0
2018-03-07T02:02:24.968Z,0
2018-03-07T02:03:25.492Z,0
2018-03-07T02:04:25.199Z,0
2018-03-07T02:05:25.177Z,0
2018-03-07T02:06:25.432Z,0
2018-03-07T02:07:25.460Z,0
2018-03-07T02:08:24.862Z,0
2018-03-07T02:09:25.385Z,0
2018-03-07T02:10:44.030Z,0
2018-03-07T02:11:25.334Z,0
2018-03-07T02:12:24.782Z,0
2018-03-07T02:13:25.311Z,0
2018-03-07T02:14:25.281Z,0
2018-03-07T02:15:24.739Z,0
2018-03-07T02:16:24.978Z,0
2018-03-07T02:17:24.965Z,0
2018-03-07T02:18:25.201Z,0
2018-03-07T02:19:24.680Z,0
2018-03-07T02:20:25.178Z,0
2018-03-07T02:21:24.889Z,0
2018-03-07T02:22:24.879Z,0
2018-03-07T02:23:24.584Z,0
2018-03-07T02:24:24.834Z,0
2018-03-07T02:25:24.289Z,0
2018-03-07T02:26:24.789Z,0
2018-03-07T02:27:25.319Z,0
2018-03-07T02:28:24.484Z,0
2018-03-07T02:29:24.519Z,0
2018-03-07T02:30:24.185Z,0
2018-03-07T02:31:24.161Z,0
2018-03-07T02:32:24.946Z,0
2018-03-07T02:33:24.662Z,0
2018-03-07T02:34:24.378Z,0
2018-03-07T02:35:24.361Z,0
2018-03-07T02:36:24.601Z,0
2018-03-07T02:37:24.326Z,0
2018-03-07T02:38:24.839Z,0
2018-03-07T02:39:24.818Z,0
2018-03-07T02:40:24.527Z,0
2018-03-07T02:41:24.251Z,0
2018-03-07T02:42:24.492Z,0
2018-03-07T02:43:24.748Z,0
2018-03-07T02:44:24.448Z,0
2018-03-07T02:45:24.240Z,0
2018-03-07T02:46:24.152Z,0
2018-03-07T02:47:24.130Z,0
2018-03-07T02:48:24.158Z,0
2018-03-07T02:49:24.359Z,0
2018-03-07T02:50:24.076Z,0
2018-03-07T02:51:24.585Z,0
2018-03-07T02:52:24.035Z,0
2018-03-07T02:53:24.556Z,0
2018-03-07T02:54:24.805Z,0
2018-03-07T02:55:24.029Z,0
2018-03-07T02:56:24.242Z,0
2018-03-07T02:57:24.737Z,0
2018-03-07T02:58:24.732Z,0
2018-03-07T02:59:24.168Z,0
2018-03-07T03:00:23.616Z,0
2018-03-07T03:01:24.406Z,0
2018-03-07T03:02:23.847Z,0
2018-03-07T03:03:24.099Z,0
2018-03-07T03:04:23.821Z,0
2018-03-07T03:05:23.532Z,0
2018-03-07T03:06:24.598Z,0
2018-03-07T03:07:24.023Z,0
2018-03-07T03:08:24.584Z,0
2018-03-07T03:09:23.986Z,0
2018-03-07T03:10:23.696Z,0
2018-03-07T03:11:23.949Z,0
2018-03-07T03:12:23.922Z,0
2018-03-07T03:13:23.373Z,0
2018-03-07T03:14:23.614Z,0
2018-03-07T03:15:23.865Z,0
2018-03-07T03:16:24.106Z,0
2018-03-07T03:17:24.140Z,0
2018-03-07T03:18:23.815Z,0
2018-03-07T03:19:23.532Z,0
2018-03-07T03:20:23.768Z,0
2018-03-07T03:21:24.011Z,0
2018-03-07T03:22:23.742Z,0
2018-03-07T03:23:23.448Z,0
2018-03-07T03:24:23.163Z,0
2018-03-07T03:25:23.410Z,0
2018-03-07T03:26:23.657Z,0
2018-03-07T03:27:23.636Z,0
2018-03-07T03:28:23.617Z,0
2018-03-07T03:29:23.071Z,0
2018-03-07T03:30:23.056Z,0
2018-03-07T03:31:23.839Z,0
2018-03-07T03:32:23.284Z,0
2018-03-07T03:33:23.275Z,0
2018-03-07T03:34:23.441Z,0
2018-03-07T03:35:24.073Z,0
2018-03-07T03:36:23.475Z,0
2018-03-07T03:37:23.449Z,0
2018-03-07T03:38:23.164Z,0
2018-03-07T03:39:23.415Z,0
2018-03-07T03:40:23.395Z,0
2018-03-07T03:41:23.371Z,0
2018-03-07T03:42:23.088Z,0
2018-03-07T03:43:23.605Z,0
2018-03-07T03:44:23.584Z,0
2018-03-07T03:45:23.344Z,0
2018-03-07T03:46:23.022Z,0
2018-03-07T03:47:23.531Z,0
2018-03-07T03:48:22.983Z,0
2018-03-07T03:49:23.496Z,0
2018-03-07T03:50:23.201Z,0
2018-03-07T03:51:23.450Z,0
2018-03-07T03:52:23.439Z,0
2018-03-07T03:53:22.874Z,0
2018-03-07T03:54:23.180Z,0
2018-03-07T03:55:22.568Z,0
2018-03-07T03:56:23.085Z,0
2018-03-07T03:57:23.064Z,0
2018-03-07T03:58:22.778Z,0
2018-03-07T03:59:22.758Z,0
2018-03-07T04:00:23.282Z,0
2018-03-07T04:01:22.996Z,0
2018-03-07T04:02:22.740Z,0
2018-03-07T04:03:23.482Z,0
2018-03-07T04:04:22.932Z,0
2018-03-07T04:05:22.905Z,0
2018-03-07T04:06:22.625Z,0
2018-03-07T04:07:22.602Z,0
2018-03-07T04:08:22.858Z,0
2018-03-07T04:09:22.831Z,0
2018-03-07T04:10:22.815Z,0
2018-03-07T04:11:29.072Z,0
2018-03-07T04:12:22.508Z,0
2018-03-07T04:13:22.493Z,0
2018-03-07T04:14:22.735Z,0
2018-03-07T04:15:22.984Z,0
2018-03-07T04:16:22.713Z,0
2018-03-07T04:17:22.148Z,0
2018-03-07T04:18:22.925Z,0
2018-03-07T04:19:22.637Z,0
2018-03-07T04:20:22.875Z,0
2018-03-07T04:21:22.597Z,0
2018-03-07T04:22:22.844Z,0
2018-03-07T04:23:22.555Z,0
2018-03-07T04:24:22.536Z,0
2018-03-07T04:25:21.984Z,0
2018-03-07T04:26:22.241Z,0
2018-03-07T04:27:22.475Z,0
2018-03-07T04:28:22.191Z,0
2018-03-07T04:29:22.699Z,0
2018-03-07T04:30:23.002Z,0
2018-03-07T04:31:22.711Z,0
2018-03-07T04:32:22.380Z,0
2018-03-07T04:33:22.366Z,0
2018-03-07T04:34:22.075Z,0
2018-03-07T04:35:22.056Z,0
2018-03-07T04:36:22.311Z,0
2018-03-07T04:37:22.303Z,0
2018-03-07T04:38:22.527Z,0
2018-03-07T04:39:22.230Z,0
2018-03-07T04:40:22.222Z,0
2018-03-07T04:41:22.225Z,0
2018-03-07T04:42:21.909Z,0
2018-03-07T04:43:21.890Z,0
2018-03-07T04:44:22.400Z,0
2018-03-07T04:45:21.852Z,0
2018-03-07T04:46:21.833Z,0
2018-03-07T04:47:22.073Z,0
2018-03-07T04:48:21.794Z,0
2018-03-07T04:49:22.309Z,0
2018-03-07T04:50:22.008Z,0
2018-03-07T04:51:22.004Z,0
2018-03-07T04:52:21.969Z,0
2018-03-07T04:53:21.955Z,0
2018-03-07T04:54:22.194Z,0
2018-03-07T04:55:22.178Z,0
2018-03-07T04:56:22.157Z,0
2018-03-07T04:57:21.871Z,0
2018-03-07T04:58:22.132Z,0
2018-03-07T04:59:21.558Z,0
2018-03-07T05:00:22.358Z,0
2018-03-07T05:01:21.523Z,0
2018-03-07T05:02:21.768Z,0
2018-03-07T05:03:21.743Z,0
2018-03-07T05:04:21.731Z,0
2018-03-07T05:05:21.711Z,0
2018-03-07T05:06:21.962Z,0
2018-03-07T05:07:21.402Z,0
2018-03-07T05:08:21.644Z,0
2018-03-07T05:09:21.619Z,0
2018-03-07T05:10:21.867Z,0
2018-03-07T05:11:21.316Z,0
2018-03-07T05:12:21.825Z,0
2018-03-07T05:13:21.005Z,0
2018-03-07T05:14:21.524Z,0
2018-03-07T05:15:21.767Z,0
2018-03-07T05:16:21.739Z,0
2018-03-07T05:17:21.185Z,0
2018-03-07T05:18:21.700Z,0
2018-03-07T05:19:21.681Z,0
2018-03-07T05:20:21.130Z,0
2018-03-07T05:21:21.383Z,0
2018-03-07T05:22:21.359Z,0
2018-03-07T05:23:21.330Z,0
2018-03-07T05:24:21.341Z,0
2018-03-07T05:25:21.565Z,0
2018-03-07T05:26:21.010Z,0
2018-03-07T05:27:21.778Z,0
2018-03-07T05:28:21.492Z,0
2018-03-07T05:29:21.202Z,0
2018-03-07T05:30:20.665Z,0
2018-03-07T05:31:20.893Z,0
2018-03-07T05:32:20.870Z,0
2018-03-07T05:33:21.384Z,0
2018-03-07T05:34:21.095Z,0
2018-03-07T05:35:21.652Z,0
2018-03-07T05:36:20.531Z,0
2018-03-07T05:37:21.034Z,0
2018-03-07T05:38:21.009Z,0
2018-03-07T05:39:20.722Z,0
2018-03-07T05:40:20.984Z,0
2018-03-07T05:41:20.953Z,0
2018-03-07T05:42:20.931Z,0
2018-03-07T05:43:21.173Z,0
2018-03-07T05:44:21.146Z,0
2018-03-07T05:45:20.335Z,0
2018-03-07T05:46:20.847Z,0
2018-03-07T05:47:20.554Z,0
2018-03-07T05:48:20.541Z,0
2018-03-07T05:49:21.044Z,0
2018-03-07T05:50:20.494Z,0
2018-03-07T05:51:20.471Z,0
2018-03-07T05:52:20.994Z,0
2018-03-07T05:53:20.696Z,0
2018-03-07T05:54:20.668Z,0
2018-03-07T05:55:20.646Z,0
2018-03-07T05:56:20.894Z,0
2018-03-07T05:57:20.870Z,0
2018-03-07T05:58:20.912Z,0
2018-03-07T05:59:20.867Z,0
2018-03-07T06:00:20.294Z,0
2018-03-07T06:01:20.787Z,0
2018-03-07T06:02:20.245Z,0
2018-03-07T06:03:20.469Z,5
2018-03-07T06:04:20.191Z,5
2018-03-07T06:05:20.704Z,5
2018-03-07T06:06:20.153Z,5
2018-03-07T06:07:20.126Z,5
2018-03-07T06:08:20.380Z,5
2018-03-07T06:09:20.086Z,5
2018-03-07T06:10:20.588Z,5
2018-03-07T06:11:20.574Z,5
2018-03-07T06:12:20.020Z,5
2018-03-07T06:13:20.525Z,10
2018-03-07T06:14:19.978Z,10
2018-03-07T06:15:20.482Z,10
2018-03-07T06:16:19.936Z,10
2018-03-07T06:17:19.925Z,10
2018-03-07T06:18:20.687Z,10
2018-03-07T06:19:20.131Z,10
2018-03-07T06:20:20.641Z,10
2018-03-07T06:21:20.091Z,10
2018-03-07T06:22:19.799Z,15
2018-03-07T06:23:20.046Z,15
2018-03-07T06:24:45.165Z,15
2018-03-07T06:25:20.528Z,15
2018-03-07T06:26:20.244Z,15
2018-03-07T06:27:19.964Z,15
2018-03-07T06:28:19.945Z,20
2018-03-07T06:29:20.180Z,20
2018-03-07T06:30:20.425Z,20
2018-03-07T06:31:19.880Z,25
2018-03-07T06:32:20.117Z,25
2018-03-07T06:33:20.096Z,25
2018-03-07T06:34:20.130Z,30
2018-03-07T06:35:19.517Z,30
2018-03-07T06:36:20.291Z,30
2018-03-07T06:37:19.737Z,30
2018-03-07T06:38:19.193Z,30
2018-03-07T06:39:19.173Z,35
2018-03-07T06:40:19.684Z,35
2018-03-07T06:41:20.314Z,35
2018-03-07T06:42:19.638Z,40
2018-03-07T06:43:19.894Z,40
2018-03-07T06:44:19.582Z,40
2018-03-07T06:45:19.305Z,40
2018-03-07T06:46:19.811Z,45
2018-03-07T06:47:19.782Z,45
2018-03-07T06:48:19.497Z,45
2018-03-07T06:49:19.214Z,50
2018-03-07T06:50:19.516Z,50
2018-03-07T06:51:19.703Z,50
2018-03-07T06:52:19.683Z,55
2018-03-07T06:53:18.868Z,55
2018-03-07T06:54:19.385Z,55
2018-03-07T06:55:19.085Z,50
2018-03-07T06:56:19.874Z,55
2018-03-07T06:57:19.585Z,55
2018-03-07T06:58:19.307Z,55
2018-03-07T06:59:19.019Z,55
2018-03-07T07:00:19.777Z,60
2018-03-07T07:01:19.226Z,65
2018-03-07T07:02:19.233Z,75
2018-03-07T07:03:19.182Z,75
2018-03-07T07:04:18.892Z,80
2018-03-07T07:05:19.398Z,80
2018-03-07T07:06:19.202Z,80
2018-03-07T07:07:19.413Z,80
2018-03-07T07:08:18.822Z,75
2018-03-07T07:09:18.793Z,75
2018-03-07T07:10:19.038Z,75
2018-03-07T07:11:19.279Z,75
2018-03-07T07:12:19.549Z,80
2018-03-07T07:13:18.701Z,80
2018-03-07T07:14:18.947Z,80
2018-03-07T07:15:18.665Z,80
2018-03-07T07:16:18.910Z,85
2018-03-07T07:17:19.154Z,85
2018-03-07T07:18:19.410Z,95
2018-03-07T07:19:18.848Z,100
2018-03-07T07:20:19.121Z,100
2018-03-07T07:21:18.803Z,105
2018-03-07T07:22:18.817Z,105
2018-03-07T07:23:19.299Z,110
2018-03-07T07:24:18.742Z,115
2018-03-07T07:25:18.724Z,115
2018-03-07T07:26:18.431Z,120
2018-03-07T07:27:18.948Z,125
2018-03-07T07:28:18.932Z,130
2018-03-07T07:29:18.376Z,130
2018-03-07T07:30:18.883Z,125
2018-03-07T07:31:18.606Z,115
2018-03-07T07:32:18.838Z,105
2018-03-07T07:33:18.559Z,100
2018-03-07T07:34:18.270Z,100
2018-03-07T07:35:18.989Z,95
2018-03-07T07:36:18.760Z,95
2018-03-07T07:37:18.486Z,95
2018-03-07T07:38:18.726Z,95
2018-03-07T07:39:18.970Z,100
2018-03-07T07:40:18.157Z,95
2018-03-07T07:41:18.133Z,100
2018-03-07T07:42:18.648Z,100
2018-03-07T07:43:18.697Z,100
2018-03-07T07:44:18.339Z,100
2018-03-07T07:45:18.587Z,105
2018-03-07T07:46:18.313Z,105
2018-03-07T07:47:18.327Z,105
2018-03-07T07:48:18.792Z,105
2018-03-07T07:49:18.519Z,105
2018-03-07T07:50:18.496Z,105
2018-03-07T07:51:17.934Z,105
2018-03-07T07:52:18.447Z,105
2018-03-07T07:53:18.459Z,110
2018-03-07T07:54:18.684Z,110
2018-03-07T07:55:17.861Z,110
2018-03-07T07:56:18.110Z,110
2018-03-07T07:57:17.836Z,110
2018-03-07T07:58:17.804Z,115
2018-03-07T07:59:17.524Z,115
2018-03-07T08:00:17.767Z,115
2018-03-07T08:01:18.538Z,115
2018-03-07T08:02:18.256Z,115
2018-03-07T08:03:17.710Z,120
2018-03-07T08:04:18.223Z,120
2018-03-07T08:05:18.210Z,120
2018-03-07T08:06:18.189Z,125
2018-03-07T08:07:17.635Z,125
2018-03-07T08:08:18.202Z,125
2018-03-07T08:09:17.857Z,125
2018-03-07T08:10:17.840Z,125
2018-03-07T08:11:17.819Z,130
2018-03-07T08:12:18.069Z,130
2018-03-07T08:13:18.096Z,130
2018-03-07T08:14:17.764Z,135
2018-03-07T08:15:18.004Z,135
2018-03-07T08:16:18.009Z,135
2018-03-07T08:17:17.714Z,140
2018-03-07T08:18:18.338Z,140
2018-03-07T08:19:17.404Z,140
2018-03-07T08:20:17.691Z,145
2018-03-07T08:21:17.097Z,145
2018-03-07T08:22:17.882Z,145
2018-03-07T08:23:17.592Z,150
2018-03-07T08:24:17.847Z,285
2018-03-07T08:25:17.028Z,470
2018-03-07T08:26:17.546Z,495
2018-03-07T08:27:16.988Z,515
2018-03-07T08:28:18.037Z,535
2018-03-07T08:29:16.954Z,535
2018-03-07T08:30:17.737Z,550
2018-03-07T08:31:17.989Z,580
2018-03-07T08:32:17.442Z,590
2018-03-07T08:33:17.163Z,590
2018-03-07T08:34:17.406Z,575
2018-03-07T08:35:17.137Z,530
2018-03-07T08:36:17.640Z,515
2018-03-07T08:37:17.374Z,570
2018-03-07T08:38:16.818Z,555
2018-03-07T08:39:17.606Z,575
2018-03-07T08:40:17.338Z,610
2018-03-07T08:41:17.317Z,565
2018-03-07T08:42:17.030Z,515
2018-03-07T08:43:17.024Z,525
2018-03-07T08:44:17.272Z,505
2018-03-07T08:45:17.273Z,530
2018-03-07T08:46:17.266Z,545
2018-03-07T08:47:16.979Z,510
2018-03-07T08:48:17.506Z,510
2018-03-07T08:49:16.959Z,525
2018-03-07T08:50:16.948Z,650
2018-03-07T08:51:16.670Z,710
2018-03-07T08:52:17.191Z,755
2018-03-07T08:53:17.451Z,785
2018-03-07T08:54:17.434Z,740
2018-03-07T08:55:17.435Z,600
2018-03-07T08:56:17.467Z,520
2018-03-07T08:57:17.147Z,555
2018-03-07T08:58:17.137Z,565
2018-03-07T08:59:17.129Z,500
2018-03-07T09:00:16.854Z,530
2018-03-07T09:01:17.117Z,545
2018-03-07T09:02:17.641Z,590
2018-03-07T09:03:17.628Z,625
2018-03-07T09:04:17.366Z,510
2018-03-07T09:05:17.622Z,380
2018-03-07T09:06:17.079Z,420
2018-03-07T09:07:17.330Z,445
2018-03-07T09:08:16.795Z,420
2018-03-07T09:09:17.317Z,470
2018-03-07T09:10:17.461Z,445
2018-03-07T09:11:16.768Z,425
2018-03-07T09:12:17.031Z,425
2018-03-07T09:13:17.021Z,390
2018-03-07T09:14:17.025Z,370
2018-03-07T09:15:17.008Z,490
2018-03-07T09:16:16.465Z,520
2018-03-07T09:17:17.244Z,555
2018-03-07T09:18:16.714Z,525
2018-03-07T09:19:16.702Z,460
2018-03-07T09:20:16.961Z,375
2018-03-07T09:21:16.951Z,280
2018-03-07T09:22:16.947Z,345
2018-03-07T09:23:16.991Z,570
2018-03-07T09:24:16.397Z,485
2018-03-07T09:25:16.949Z,620
2018-03-07T09:26:17.448Z,740
2018-03-07T09:27:16.638Z,545
2018-03-07T09:28:16.896Z,515
2018-03-07T09:29:17.422Z,535
2018-03-07T09:30:16.343Z,575
2018-03-07T09:31:16.870Z,675
2018-03-07T09:32:16.341Z,840
2018-03-07T09:33:17.121Z,925
2018-03-07T09:34:17.113Z,950
2018-03-07T09:35:17.307Z,840
2018-03-07T09:36:17.112Z,715
2018-03-07T09:37:16.559Z,550
2018-03-07T09:38:16.826Z,555
2018-03-07T09:39:16.818Z,530
2018-03-07T09:40:17.073Z,295
2018-03-07T09:41:17.066Z,250
2018-03-07T09:42:17.060Z,320
2018-03-07T09:43:17.056Z,555
2018-03-07T09:44:17.040Z,625
2018-03-07T09:45:16.905Z,455
2018-03-07T09:46:16.762Z,555
2018-03-07T09:47:17.031Z,695
2018-03-07T09:48:17.020Z,730
2018-03-07T09:49:16.475Z,685
2018-03-07T09:50:16.783Z,615
2018-03-07T09:51:16.456Z,550
2018-03-07T09:52:16.455Z,530
2018-03-07T09:53:16.177Z,625
2018-03-07T09:54:16.980Z,620
2018-03-07T09:55:16.692Z,445
2018-03-07T09:56:17.004Z,320
2018-03-07T09:57:16.953Z,320
2018-03-07T09:58:16.942Z,395
2018-03-07T09:59:16.419Z,460
2018-03-07T10:00:16.663Z,390
2018-03-07T10:01:16.658Z,325
2018-03-07T10:02:16.645Z,315
2018-03-07T10:03:16.911Z,465
2018-03-07T10:04:16.896Z,630
2018-03-07T10:05:16.355Z,720
2018-03-07T10:06:16.883Z,255
2018-03-07T10:07:16.380Z,255
2018-03-07T10:08:16.603Z,335
2018-03-07T10:09:16.329Z,250
2018-03-07T10:10:16.059Z,250
2018-03-07T10:11:16.844Z,335
2018-03-07T10:12:16.848Z,265
2018-03-07T10:13:16.570Z,270
2018-03-07T10:14:16.824Z,565
2018-03-07T10:15:16.300Z,575
2018-03-07T10:16:16.013Z,450
2018-03-07T10:17:16.799Z,605
2018-03-07T10:18:16.519Z,720
2018-03-07T10:19:16.514Z,550
2018-03-07T10:20:15.970Z,450
2018-03-07T10:21:16.496Z,590
2018-03-07T10:22:16.221Z,665
2018-03-07T10:23:16.748Z,485
2018-03-07T10:24:16.478Z,435
2018-03-07T10:25:16.993Z,480
2018-03-07T10:26:16.983Z,535
2018-03-07T10:27:16.442Z,490
2018-03-07T10:28:16.173Z,500
2018-03-07T10:29:16.166Z,570
2018-03-07T10:30:16.209Z,635
2018-03-07T10:31:16.680Z,690
2018-03-07T10:32:16.674Z,715
2018-03-07T10:33:16.664Z,585
2018-03-07T10:34:16.191Z,545
2018-03-07T10:35:16.150Z,705
2018-03-07T10:36:16.692Z,735
2018-03-07T10:37:16.113Z,740
2018-03-07T10:38:16.675Z,635
2018-03-07T10:39:16.349Z,580
2018-03-07T10:40:16.608Z,735
2018-03-07T10:41:16.358Z,860
2018-03-07T10:42:16.335Z,855
2018-03-07T10:43:16.335Z,445
2018-03-07T10:44:16.585Z,465
2018-03-07T10:45:16.592Z,310
2018-03-07T10:46:16.308Z,320
2018-03-07T10:47:16.660Z,325
2018-03-07T10:48:16.285Z,310
2018-03-07T10:49:16.555Z,290
2018-03-07T10:50:16.293Z,270
2018-03-07T10:51:16.277Z,255
2018-03-07T10:52:16.025Z,235
2018-03-07T10:53:15.990Z,220
2018-03-07T10:54:15.993Z,210
2018-03-07T10:55:15.979Z,200
2018-03-07T10:56:16.771Z,190
2018-03-07T10:57:16.224Z,180
2018-03-07T10:58:16.002Z,170
2018-03-07T10:59:15.682Z,165
2018-03-07T11:00:16.208Z,160
2018-03-07T11:01:16.197Z,155
2018-03-07T11:02:16.190Z,150
2018-03-07T11:03:16.181Z,150
2018-03-07T11:04:15.899Z,150
2018-03-07T11:05:16.158Z,150
2018-03-07T11:06:16.158Z,140
2018-03-07T11:07:16.148Z,135
2018-03-07T11:08:16.126Z,125
2018-03-07T11:09:15.842Z,120
2018-03-07T11:10:16.107Z,110
2018-03-07T11:11:16.098Z,105
2018-03-07T11:12:15.822Z,90
2018-03-07T11:13:15.810Z,80
2018-03-07T11:14:16.257Z,75
2018-03-07T11:15:16.051Z,70
2018-03-07T11:16:16.572Z,65
2018-03-07T11:17:16.298Z,65
2018-03-07T11:18:16.286Z,60
2018-03-07T11:19:16.013Z,60
2018-03-07T11:20:15.996Z,60
2018-03-07T11:21:15.460Z,55
2018-03-07T11:22:15.964Z,55
2018-03-07T11:23:15.743Z,50
2018-03-07T11:24:15.678Z,50
2018-03-07T11:25:15.664Z,55
2018-03-07T11:26:15.923Z,55
2018-03-07T11:27:16.171Z,55
2018-03-07T11:28:15.931Z,55
2018-03-07T11:29:15.398Z,55
2018-03-07T11:30:16.181Z,55
2018-03-07T11:31:15.591Z,55
2018-03-07T11:32:16.109Z,60
2018-03-07T11:33:15.612Z,65
2018-03-07T11:34:15.810Z,65
2018-03-07T11:35:16.535Z,70
2018-03-07T11:36:15.252Z,65
2018-03-07T11:37:15.507Z,65
2018-03-07T11:38:15.781Z,65
2018-03-07T11:39:15.753Z,65
2018-03-07T11:40:15.470Z,65
2018-03-07T11:41:15.725Z,60
2018-03-07T11:42:15.715Z,60
2018-03-07T11:43:15.691Z,55
2018-03-07T11:44:15.675Z,55
2018-03-07T11:45:16.349Z,50
2018-03-07T11:46:15.648Z,45
2018-03-07T11:47:15.900Z,40
2018-03-07T11:48:15.895Z,35
2018-03-07T11:49:15.878Z,35
2018-03-07T11:50:15.591Z,30
2018-03-07T11:51:15.854Z,30
2018-03-07T11:52:15.611Z,30
2018-03-07T11:53:15.816Z,30
2018-03-07T11:54:15.558Z,30
2018-03-07T11:55:14.992Z,30
2018-03-07T11:56:16.188Z,30
2018-03-07T11:57:16.017Z,30
2018-03-07T11:58:15.478Z,30
2018-03-07T11:59:15.992Z,30
2018-03-07T12:00:15.455Z,30
2018-03-07T12:01:15.165Z,30
2018-03-07T12:02:15.163Z,30
2018-03-07T12:03:15.147Z,30
2018-03-07T12:04:15.128Z,30
2018-03-07T12:05:14.853Z,30
2018-03-07T12:06:15.639Z,30
2018-03-07T12:07:15.712Z,30
2018-03-07T12:08:15.601Z,30
2018-03-07T12:09:15.310Z,30
2018-03-07T12:10:15.035Z,30
2018-03-07T12:11:15.739Z,30
2018-03-07T12:12:15.274Z,30
2018-03-07T12:13:15.521Z,30
2018-03-07T12:14:15.600Z,30
2018-03-07T12:15:14.968Z,35
2018-03-07T12:16:15.527Z,35
2018-03-07T12:17:15.464Z,35
2018-03-07T12:18:15.189Z,35
2018-03-07T12:19:14.902Z,40
2018-03-07T12:20:15.438Z,40
2018-03-07T12:21:14.608Z,45
2018-03-07T12:22:15.398Z,50
2018-03-07T12:23:14.853Z,45
2018-03-07T12:24:15.107Z,45
2018-03-07T12:25:14.823Z,45
2018-03-07T12:26:14.816Z,45
2018-03-07T12:27:15.331Z,50
2018-03-07T12:28:15.706Z,55
2018-03-07T12:29:15.339Z,55
2018-03-07T12:30:14.741Z,60
2018-03-07T12:31:14.725Z,70
2018-03-07T12:32:14.977Z,80
2018-03-07T12:33:15.183Z,105
2018-03-07T12:34:14.682Z,125
2018-03-07T12:35:15.248Z,135
2018-03-07T12:36:15.224Z,150
2018-03-07T12:37:15.164Z,155
2018-03-07T12:38:14.893Z,155
2018-03-07T12:39:14.609Z,155
2018-03-07T12:40:14.587Z,155
2018-03-07T12:41:14.850Z,155
2018-03-07T12:42:14.295Z,150
2018-03-07T12:43:14.559Z,150
2018-03-07T12:44:14.802Z,150
2018-03-07T12:45:15.046Z,150
2018-03-07T12:46:14.769Z,150
2018-03-07T12:47:14.743Z,145
2018-03-07T12:48:14.743Z,135
2018-03-07T12:49:15.011Z,125
2018-03-07T12:50:14.443Z,130
2018-03-07T12:51:15.015Z,140
2018-03-07T12:52:15.285Z,140
2018-03-07T12:53:14.661Z,140
2018-03-07T12:54:14.914Z,145
2018-03-07T12:55:14.905Z,145
2018-03-07T12:56:14.637Z,150
2018-03-07T12:57:14.347Z,150
2018-03-07T12:58:14.334Z,150
2018-03-07T12:59:15.133Z,145
2018-03-07T13:00:14.626Z,140
2018-03-07T13:01:14.289Z,125
2018-03-07T13:02:14.539Z,105
2018-03-07T13:03:14.792Z,100
2018-03-07T13:04:14.781Z,115
2018-03-07T13:05:14.503Z,135
2018-03-07T13:06:14.215Z,145
2018-03-07T13:07:15.003Z,145
2018-03-07T13:08:14.449Z,145
2018-03-07T13:09:14.432Z,140
2018-03-07T13:10:14.683Z,140
2018-03-07T13:11:14.672Z,140
2018-03-07T13:12:14.656Z,145
2018-03-07T13:13:14.636Z,150
2018-03-07T13:14:14.089Z,150
2018-03-07T13:15:14.617Z,150
2018-03-07T13:16:14.872Z,140
2018-03-07T13:17:14.325Z,135
2018-03-07T13:18:14.575Z,135
2018-03-07T13:19:14.360Z,135
2018-03-07T13:20:14.534Z,145
2018-03-07T13:21:13.985Z,140
2018-03-07T13:22:14.807Z,135
2018-03-07T13:23:14.229Z,120
2018-03-07T13:24:13.954Z,120
2018-03-07T13:25:14.458Z,145
2018-03-07T13:26:14.444Z,180
2018-03-07T13:27:13.894Z,210
2018-03-07T13:28:13.888Z,230
2018-03-07T13:29:13.865Z,225
2018-03-07T13:30:14.454Z,215
2018-03-07T13:31:14.375Z,205
2018-03-07T13:32:14.088Z,195
2018-03-07T13:33:14.600Z,190
2018-03-07T13:34:14.600Z,180
2018-03-07T13:35:14.250Z,175
2018-03-07T13:36:14.023Z,170
2018-03-07T13:37:14.015Z,160
2018-03-07T13:38:14.543Z,150
2018-03-07T13:39:14.518Z,140
2018-03-07T13:40:13.968Z,120
2018-03-07T13:41:14.260Z,105
2018-03-07T13:42:13.666Z,100
2018-03-07T13:43:14.469Z,95
2018-03-07T13:44:13.913Z,95
2018-03-07T13:45:13.619Z,95
2018-03-07T13:46:13.883Z,95
2018-03-07T13:47:13.588Z,90
2018-03-07T13:48:13.841Z,110
2018-03-07T13:49:14.097Z,130
2018-03-07T13:50:13.832Z,140
2018-03-07T13:51:13.543Z,135
2018-03-07T13:52:13.783Z,135
2018-03-07T13:53:13.777Z,135
2018-03-07T13:54:13.535Z,135
2018-03-07T13:55:14.286Z,135
2018-03-07T13:56:13.731Z,135
2018-03-07T13:57:13.717Z,135
2018-03-07T13:58:13.168Z,135
2018-03-07T13:59:13.685Z,140
2018-03-07T14:00:13.939Z,140
2018-03-07T14:01:13.639Z,140
2018-03-07T14:02:13.634Z,140
2018-03-07T14:03:13.349Z,140
2018-03-07T14:04:13.862Z,140
2018-03-07T14:05:13.057Z,140
2018-03-07T14:06:13.614Z,135
2018-03-07T14:07:13.623Z,140
2018-03-07T14:08:13.272Z,150
2018-03-07T14:09:13.255Z,145
2018-03-07T14:10:13.507Z,140
2018-03-07T14:11:14.017Z,140
2018-03-07T14:12:13.214Z,145
2018-03-07T14:13:13.458Z,145
2018-03-07T14:14:13.718Z,145
2018-03-07T14:15:13.421Z,150
2018-03-07T14:16:13.978Z,145
2018-03-07T14:17:13.396Z,140